Time;durP1;ratioP1;P1;durP2;ratioP2;P2;SDS_P1;SDS_P2;PMS_P1;PMS_P2;Temp;Humidity;BMP_temperature;BMP_pressure;BME280_temperature;BME280_humidity;BME280_pressure;Samples;Min_cycle;Max_cycle;Signal;HPM_P1;HPM_P2
2021/03/30 00:01:57;;;;;;;6.55;3.05;;;9.10;99.90;;;;;;4995314;28;20062;-88
2021/03/30 00:04:24;;;;;;;4.60;2.38;;;9.10;99.90;;;;;;4995067;28;20058;-89
2021/03/30 00:06:51;;;;;;;11.05;4.63;;;9.10;99.90;;;;;;4995216;28;20046;-89
2021/03/30 00:09:17;;;;;;;10.32;2.92;;;9.10;99.90;;;;;;4995042;28;20058;-90
2021/03/30 00:11:44;;;;;;;10.50;3.28;;;9.00;99.90;;;;;;4995030;28;20046;-90
2021/03/30 00:14:10;;;;;;;11.77;3.85;;;9.00;99.90;;;;;;4995061;28;20050;-90
2021/03/30 00:16:37;;;;;;;8.88;3.63;;;9.00;99.90;;;;;;4994880;28;20066;-89
2021/03/30 00:19:04;;;;;;;13.70;3.03;;;8.90;99.90;;;;;;4995045;28;20460;-88
2021/03/30 00:21:31;;;;;;;11.98;2.08;;;8.90;99.90;;;;;;4995102;28;20050;-90
2021/03/30 00:23:58;;;;;;;5.88;1.98;;;8.90;99.90;;;;;;4994979;28;20471;-89
2021/03/30 00:26:24;;;;;;;2.83;1.70;;;8.90;99.90;;;;;;4995268;28;20073;-89
2021/03/30 00:28:51;;;;;;;15.00;3.63;;;8.90;99.90;;;;;;4994829;28;20057;-90
2021/03/30 00:31:17;;;;;;;12.40;4.68;;;8.90;99.90;;;;;;4994613;28;20050;-90
2021/03/30 00:33:44;;;;;;;11.95;3.75;;;;;;;;;;4994270;28;20491;-89
2021/03/30 00:36:12;;;;;;;11.85;4.13;;;;;;;;;;4994499;28;20050;-90
2021/03/30 00:38:38;;;;;;;8.98;3.33;;;8.90;99.90;;;;;;4994714;28;20137;-89
2021/03/30 00:41:05;;;;;;;4.55;1.95;;;8.90;99.90;;;;;;4995031;28;20352;-90
2021/03/30 00:43:31;;;;;;;0.22;0.22;;;8.80;99.90;;;;;;5003562;28;20061;-90
2021/03/30 00:45:58;;;;;;;12.63;5.65;;;;;;;;;;5017763;28;20058;-90
2021/03/30 00:48:26;;;;;;;10.57;3.60;;;8.80;99.90;;;;;;5018367;28;20056;-90
2021/03/30 00:50:53;;;;;;;9.00;2.90;;;8.80;99.90;;;;;;5017987;28;20050;-90
2021/03/30 00:53:20;;;;;;;1.02;1.00;;;;;;;;;;5018026;28;20049;-90
2021/03/30 00:55:47;;;;;;;12.48;3.45;;;8.80;99.90;;;;;;5018138;28;20115;-90
2021/03/30 00:58:14;;;;;;;8.70;3.80;;;8.70;99.90;;;;;;5017941;28;20046;-90
2021/03/30 01:00:40;;;;;;;9.05;3.90;;;8.70;99.90;;;;;;5017758;28;20057;-91
2021/03/30 01:03:07;;;;;;;8.77;3.05;;;8.60;99.90;;;;;;5006595;28;20058;-91
2021/03/30 01:05:34;;;;;;;6.40;3.10;;;8.60;99.90;;;;;;4998247;28;20054;-89
2021/03/30 01:08:12;;;;;;;9.50;3.42;;;8.60;99.90;;;;;;4997990;28;20383;-88
2021/03/30 01:10:47;;;;;;;13.60;3.42;;;8.60;99.90;;;;;;4998290;28;20050;-89
2021/03/30 01:13:40;;;;;;;12.55;2.97;;;8.60;99.90;;;;;;4998360;28;20064;-89
2021/03/30 01:16:09;;;;;;;8.43;2.90;;;8.50;99.90;;;;;;4998453;28;20093;-90
2021/03/30 01:18:37;;;;;;;5.85;2.78;;;8.50;99.90;;;;;;4998104;28;20060;-90
2021/03/30 01:21:37;;;;;;;9.30;2.95;;;8.40;99.90;;;;;;4997930;28;20057;-89
2021/03/30 01:24:06;;;;;;;4.00;2.40;;;8.40;99.90;;;;;;4997586;28;20471;-90
2021/03/30 01:26:56;;;;;;;4.50;2.55;;;8.30;99.90;;;;;;4997769;28;20046;-89
2021/03/30 01:29:43;;;;;;;3.22;1.23;;;8.30;99.90;;;;;;4997966;28;20050;-90
2021/03/30 01:32:15;;;;;;;5.82;2.80;;;8.30;99.90;;;;;;5000679;28;20046;-89
2021/03/30 01:34:44;;;;;;;5.35;2.33;;;8.30;99.90;;;;;;5017534;28;20054;-89
2021/03/30 01:37:10;;;;;;;7.07;2.63;;;8.30;99.90;;;;;;5017242;28;20057;-89
2021/03/30 01:39:37;;;;;;;6.97;2.15;;;8.20;99.90;;;;;;5017343;28;20065;-89
2021/03/30 01:42:04;;;;;;;0.20;0.20;;;8.20;99.90;;;;;;5016892;28;20368;-87
2021/03/30 01:44:31;;;;;;;8.85;1.48;;;8.20;99.90;;;;;;5016943;28;20046;-88
2021/03/30 01:46:59;;;;;;;12.15;2.05;;;8.10;99.90;;;;;;5017008;28;20060;-88
2021/03/30 01:49:25;;;;;;;6.68;3.63;;;8.10;99.90;;;;;;5017060;28;20050;-86
2021/03/30 01:51:52;;;;;;;6.90;1.83;;;8.10;99.90;;;;;;5017142;28;20045;-87
2021/03/30 01:54:19;;;;;;;7.90;3.50;;;8.00;99.90;;;;;;5017179;28;20065;-87
2021/03/30 01:56:45;;;;;;;7.97;4.05;;;8.00;99.90;;;;;;5015683;28;20057;-88
2021/03/30 01:59:14;;;;;;;2.83;0.65;;;7.90;99.90;;;;;;5016777;28;20069;-87
2021/03/30 02:01:41;;;;;;;8.40;3.65;;;7.90;99.90;;;;;;5016588;28;20462;-87
2021/03/30 02:04:09;;;;;;;9.18;3.38;;;;;;;;;;5016439;28;20057;-87
2021/03/30 02:06:37;;;;;;;7.60;4.05;;;7.80;99.90;;;;;;5017193;28;20055;-88
2021/03/30 02:09:06;;;;;;;14.32;5.43;;;7.80;99.90;;;;;;5017058;28;20046;-87
2021/03/30 02:11:40;;;;;;;11.48;4.68;;;7.80;99.90;;;;;;5016898;28;20072;-87
2021/03/30 02:14:07;;;;;;;10.50;3.75;;;7.70;99.90;;;;;;5016749;28;20058;-87
2021/03/30 02:16:35;;;;;;;8.77;3.30;;;7.70;99.90;;;;;;5016657;28;20045;-88
2021/03/30 02:19:08;;;;;;;10.27;3.90;;;7.70;99.90;;;;;;5016485;28;20045;-88
2021/03/30 02:21:39;;;;;;;7.13;3.53;;;7.70;99.90;;;;;;5016606;28;20098;-87
2021/03/30 02:24:08;;;;;;;8.25;3.97;;;7.60;99.90;;;;;;5016406;28;20057;-87
2021/03/30 02:26:35;;;;;;;10.10;4.30;;;7.60;99.90;;;;;;5016264;28;20054;-87
2021/03/30 02:29:04;;;;;;;10.82;4.18;;;7.60;99.90;;;;;;5016587;28;20111;-87
2021/03/30 02:31:31;;;;;;;11.52;4.13;;;7.60;99.90;;;;;;5016089;28;20042;-86
2021/03/30 02:34:01;;;;;;;6.65;3.65;;;7.50;99.90;;;;;;5016242;28;20092;-87
2021/03/30 02:36:28;;;;;;;8.13;3.45;;;7.50;99.90;;;;;;5016412;28;20061;-86
2021/03/30 02:38:56;;;;;;;10.10;3.70;;;7.50;99.90;;;;;;5016348;28;20049;-86
2021/03/30 02:41:23;;;;;;;10.35;4.18;;;7.50;99.90;;;;;;5016711;28;20084;-87
2021/03/30 02:43:49;;;;;;;10.80;4.05;;;7.50;99.90;;;;;;5016404;28;20046;-87
2021/03/30 02:46:17;;;;;;;13.50;5.00;;;7.40;99.90;;;;;;5016470;28;20053;-85
2021/03/30 02:48:44;;;;;;;12.80;4.97;;;7.40;99.90;;;;;;5016499;28;20128;-86
2021/03/30 02:51:10;;;;;;;11.57;3.75;;;7.40;99.90;;;;;;5016589;28;20054;-85
2021/03/30 02:53:37;;;;;;;10.82;4.00;;;7.40;99.90;;;;;;5016399;28;20054;-85
2021/03/30 02:56:05;;;;;;;15.63;5.47;;;7.40;99.90;;;;;;5016468;28;20049;-85
2021/03/30 02:58:32;;;;;;;8.85;4.90;;;7.40;99.90;;;;;;5016583;28;20058;-86
2021/03/30 03:00:59;;;;;;;7.35;3.95;;;7.50;99.90;;;;;;5016012;28;20049;-86
2021/03/30 03:03:26;;;;;;;7.88;5.00;;;7.50;99.90;;;;;;5016446;28;20057;-87
2021/03/30 03:05:53;;;;;;;14.32;5.13;;;7.50;99.90;;;;;;5016652;28;20061;-85
2021/03/30 03:08:19;;;;;;;13.75;4.95;;;7.50;99.90;;;;;;5016362;28;20053;-85
2021/03/30 03:10:46;;;;;;;9.63;4.40;;;7.50;99.90;;;;;;5016667;28;20137;-85
2021/03/30 03:13:15;;;;;;;14.45;4.95;;;7.50;99.90;;;;;;5017142;28;20050;-85
2021/03/30 03:15:41;;;;;;;24.90;5.55;;;7.50;99.90;;;;;;5017302;28;20054;-85
2021/03/30 03:18:08;;;;;;;14.63;6.07;;;7.50;99.90;;;;;;5016727;28;20079;-86
2021/03/30 03:20:35;;;;;;;10.40;5.15;;;7.60;99.90;;;;;;5016790;28;20049;-85
2021/03/30 03:23:02;;;;;;;15.40;5.30;;;7.60;99.90;;;;;;5018100;28;20050;-85
2021/03/30 03:25:28;;;;;;;12.93;4.68;;;7.50;99.90;;;;;;5017228;28;20064;-85
2021/03/30 03:27:55;;;;;;;14.27;5.43;;;7.50;99.90;;;;;;5017606;28;20459;-85
2021/03/30 03:30:24;;;;;;;21.17;5.07;;;7.50;99.90;;;;;;5016899;28;20072;-85
2021/03/30 03:32:51;;;;;;;7.50;4.07;;;7.50;99.90;;;;;;5016511;28;20382;-85
2021/03/30 03:35:18;;;;;;;9.32;4.47;;;7.50;99.90;;;;;;5017510;28;20062;-84
2021/03/30 03:37:46;;;;;;;12.82;4.60;;;7.50;99.90;;;;;;5018233;28;20053;-85
2021/03/30 03:40:13;;;;;;;11.32;4.60;;;7.50;99.90;;;;;;5017239;28;20459;-85
2021/03/30 03:42:39;;;;;;;8.43;4.03;;;7.50;99.90;;;;;;5017085;28;20050;-85
2021/03/30 03:45:10;;;;;;;8.23;4.05;;;7.50;99.90;;;;;;5016772;28;20056;-85
2021/03/30 03:47:38;;;;;;;12.60;4.40;;;7.40;99.90;;;;;;5016578;28;20081;-85
2021/03/30 03:50:05;;;;;;;10.13;5.47;;;7.40;99.90;;;;;;5018039;28;20064;-84
2021/03/30 03:52:34;;;;;;;8.93;4.75;;;7.50;99.90;;;;;;5018520;28;20046;-85
2021/03/30 03:55:01;;;;;;;12.32;5.03;;;7.40;99.90;;;;;;5017161;28;20050;-85
2021/03/30 03:57:29;;;;;;;8.43;4.78;;;7.40;99.90;;;;;;5018411;28;20455;-85
2021/03/30 03:59:58;;;;;;;8.10;4.60;;;7.40;99.90;;;;;;5017585;28;20060;-87
2021/03/30 04:02:25;;;;;;;11.52;5.47;;;7.40;99.90;;;;;;5017218;28;20060;-83
2021/03/30 04:04:56;;;;;;;11.90;5.18;;;7.40;99.90;;;;;;5016574;28;20064;-83
2021/03/30 04:07:23;;;;;;;7.72;4.22;;;7.30;99.90;;;;;;5017138;28;20050;-84
2021/03/30 04:09:51;;;;;;;9.68;4.80;;;7.30;99.90;;;;;;5016369;28;20060;-85
2021/03/30 04:12:19;;;;;;;9.93;4.60;;;7.30;99.90;;;;;;5017299;28;20050;-84
2021/03/30 04:14:46;;;;;;;8.00;4.57;;;7.30;99.90;;;;;;5018547;28;20053;-84
2021/03/30 04:17:14;;;;;;;10.35;4.40;;;7.30;99.90;;;;;;5017956;28;20132;-84
2021/03/30 04:19:41;;;;;;;12.63;4.20;;;7.20;99.90;;;;;;5020713;28;20054;-84
2021/03/30 04:22:09;;;;;;;8.57;3.90;;;7.20;99.90;;;;;;5024183;28;20057;-84
2021/03/30 04:24:36;;;;;;;15.45;5.40;;;7.20;99.90;;;;;;5024332;28;20053;-84
2021/03/30 04:27:03;;;;;;;13.45;4.63;;;7.10;99.90;;;;;;5023709;28;20053;-84
2021/03/30 04:29:29;;;;;;;12.63;4.07;;;7.00;99.90;;;;;;5022334;28;20049;-83
2021/03/30 04:31:56;;;;;;;9.50;4.32;;;7.00;99.90;;;;;;5025434;28;20068;-84
2021/03/30 04:34:23;;;;;;;8.05;3.95;;;7.00;99.90;;;;;;5027772;28;20064;-84
2021/03/30 04:36:50;;;;;;;7.10;4.18;;;7.00;99.90;;;;;;5026901;28;20100;-83
2021/03/30 04:39:17;;;;;;;7.72;4.13;;;7.00;99.90;;;;;;5028126;28;20050;-84
2021/03/30 04:41:44;;;;;;;10.27;4.20;;;6.90;99.90;;;;;;5030115;28;20060;-83
2021/03/30 04:44:12;;;;;;;11.85;4.90;;;6.80;99.90;;;;;;5029628;28;20053;-83
2021/03/30 04:46:38;;;;;;;11.05;5.32;;;6.80;99.90;;;;;;5035356;28;20054;-84
2021/03/30 04:49:05;;;;;;;12.10;4.90;;;6.80;99.90;;;;;;5034532;28;20054;-84
2021/03/30 04:51:31;;;;;;;9.00;4.20;;;6.80;99.90;;;;;;5035539;28;20094;-84
2021/03/30 04:53:58;;;;;;;9.50;4.80;;;6.80;99.90;;;;;;5038314;28;20060;-83
2021/03/30 04:56:26;;;;;;;9.82;4.60;;;6.70;99.90;;;;;;5038754;28;20050;-83
2021/03/30 04:58:52;;;;;;;10.57;4.22;;;6.70;99.90;;;;;;5039921;28;20044;-83
2021/03/30 05:01:19;;;;;;;7.68;3.88;;;6.60;99.90;;;;;;5041329;28;20129;-83
2021/03/30 05:03:45;;;;;;;19.05;7.07;;;6.60;99.90;;;;;;5024634;28;20058;-83
2021/03/30 05:06:12;;;;;;;8.10;4.00;;;6.60;99.90;;;;;;5022225;28;20058;-83
2021/03/30 05:16:28;;;;;;;18.75;5.95;;;6.70;99.90;;;;;;6100830;22;20039;-82
2021/03/30 06:46:51;;;;;;;10.85;6.75;;;7.00;99.90;;;;;;6049473;22;20042;-84
2021/03/30 06:49:17;;;;;;;12.00;5.90;;;6.90;99.90;;;;;;5039441;28;20068;-84
2021/03/30 06:51:44;;;;;;;15.05;6.30;;;6.90;99.90;;;;;;5039003;28;20085;-84
2021/03/30 06:54:12;;;;;;;13.63;7.55;;;6.90;99.90;;;;;;5037625;28;20089;-84
2021/03/30 06:56:46;;;;;;;12.77;7.10;;;7.10;99.90;;;;;;5031774;28;20430;-84
2021/03/30 06:59:13;;;;;;;12.90;6.85;;;7.20;99.90;;;;;;5028072;28;20105;-84
2021/03/30 07:01:41;;;;;;;12.30;7.10;;;7.30;99.90;;;;;;5023668;28;20060;-85
2021/03/30 07:04:08;;;;;;;15.98;6.63;;;7.40;99.90;;;;;;5000338;28;20046;-85
2021/03/30 07:06:35;;;;;;;14.98;7.28;;;7.60;99.90;;;;;;4998034;28;20481;-85
2021/03/30 07:09:01;;;;;;;23.40;8.93;;;7.70;99.90;;;;;;4996494;28;20050;-86
2021/03/30 07:11:28;;;;;;;21.88;7.82;;;7.80;99.90;;;;;;4996338;28;20076;-88
2021/03/30 07:13:56;;;;;;;20.63;7.95;;;8.00;99.90;;;;;;4996343;28;20050;-88
2021/03/30 07:16:23;;;;;;;14.68;7.60;;;8.30;99.90;;;;;;4996093;28;20061;-89
2021/03/30 07:18:51;;;;;;;18.58;7.20;;;8.70;99.90;;;;;;4995773;28;20050;-89
2021/03/30 07:21:20;;;;;;;13.23;6.25;;;8.70;99.90;;;;;;4995670;28;20459;-89
2021/03/30 07:23:48;;;;;;;19.42;9.23;;;9.40;99.90;;;;;;4995618;28;20494;-89
2021/03/30 07:26:15;;;;;;;26.33;12.40;;;10.20;99.90;;;;;;4995504;28;20054;-88
2021/03/30 07:28:47;;;;;;;23.83;11.05;;;10.30;99.90;;;;;;4995473;28;20046;-88
2021/03/30 07:31:15;;;;;;;22.25;9.55;;;11.80;99.90;;;;;;4995300;28;20046;-89
2021/03/30 07:33:45;;;;;;;25.17;9.75;;;11.80;99.90;;;;;;4995479;28;20137;-87
2021/03/30 07:36:11;;;;;;;16.60;8.55;;;11.20;99.90;;;;;;4995182;28;20050;-87
2021/03/30 07:38:42;;;;;;;24.38;7.88;;;10.70;99.90;;;;;;4995321;28;20382;-87
2021/03/30 07:41:08;;;;;;;11.43;7.35;;;10.40;99.90;;;;;;4995346;28;20352;-87
2021/03/30 07:43:35;;;;;;;14.57;8.18;;;10.40;99.90;;;;;;4995403;28;20054;-87
2021/03/30 07:46:03;;;;;;;22.90;8.93;;;10.10;99.90;;;;;;4995070;28;20050;-90
2021/03/30 07:48:30;;;;;;;11.52;6.20;;;10.10;99.90;;;;;;4995296;28;20391;-89
2021/03/30 07:51:01;;;;;;;13.20;7.30;;;9.90;99.90;;;;;;4995153;28;20511;-90
2021/03/30 07:53:45;;;;;;;16.25;7.00;;;10.00;99.90;;;;;;4995397;28;20061;-90
2021/03/30 07:56:13;;;;;;;13.77;6.78;;;9.90;99.90;;;;;;4995027;28;20061;-90
2021/03/30 07:58:43;;;;;;;20.90;7.72;;;9.90;99.90;;;;;;4994376;28;20061;-91
2021/03/30 08:01:11;;;;;;;12.85;6.40;;;9.90;99.90;;;;;;4994916;28;20050;-89
2021/03/30 08:03:37;;;;;;;16.52;6.45;;;10.00;99.90;;;;;;4994680;28;20062;-90
2021/03/30 08:06:16;;;;;;;18.88;7.03;;;10.00;99.90;;;;;;4994648;28;20050;-89
2021/03/30 08:08:52;;;;;;;17.90;6.68;;;10.00;99.90;;;;;;4995057;28;20053;-90
2021/03/30 08:11:46;;;;;;;16.20;6.45;;;10.10;99.90;;;;;;4995474;28;20112;-91
2021/03/30 08:14:39;;;;;;;17.48;6.57;;;10.10;99.90;;;;;;4994840;28;20448;-91
2021/03/30 08:17:18;;;;;;;14.80;6.25;;;10.10;99.90;;;;;;4995546;28;20082;-90
2021/03/30 08:19:55;;;;;;;13.10;6.57;;;10.20;99.90;;;;;;4995417;28;20569;-93
2021/03/30 08:22:22;;;;;;;10.65;6.15;;;10.20;99.90;;;;;;4995319;28;20046;-88
2021/03/30 08:24:57;;;;;;;12.43;5.38;;;10.30;99.90;;;;;;4995169;28;20050;-93
2021/03/30 08:27:39;;;;;;;15.80;6.40;;;10.30;99.90;;;;;;4994843;28;20054;-89
2021/03/30 08:30:18;;;;;;;14.43;5.80;;;10.20;99.90;;;;;;4994836;28;20057;-87
2021/03/30 08:32:46;;;;;;;13.55;6.43;;;10.20;99.90;;;;;;4994586;28;20073;-85
2021/03/30 08:35:31;;;;;;;13.40;6.78;;;9.90;99.90;;;;;;4994672;28;20082;-85
2021/03/30 08:37:58;;;;;;;17.02;6.03;;;;;;;;;;4994200;28;20395;-85
2021/03/30 08:40:42;;;;;;;10.77;5.40;;;10.00;99.90;;;;;;4994049;28;20108;-85
2021/03/30 08:43:23;;;;;;;11.57;5.78;;;9.90;99.90;;;;;;4994716;28;20459;-85
2021/03/30 08:46:00;;;;;;;11.23;6.00;;;9.90;99.90;;;;;;4994684;28;20101;-92
2021/03/30 08:48:32;;;;;;;10.18;5.50;;;10.00;99.90;;;;;;4994326;28;20065;-87
2021/03/30 08:50:59;;;;;;;10.77;6.90;;;10.00;99.90;;;;;;4994687;28;20062;-87
2021/03/30 08:53:29;;;;;;;12.55;6.38;;;10.00;99.90;;;;;;4994477;28;20050;-87
2021/03/30 08:55:57;;;;;;;13.35;6.57;;;10.00;99.90;;;;;;4994502;28;20057;-87
2021/03/30 08:58:26;;;;;;;16.55;6.75;;;10.10;99.90;;;;;;4994489;28;20451;-88
2021/03/30 09:00:54;;;;;;;10.70;6.38;;;10.10;99.90;;;;;;4994534;28;20050;-88
2021/03/30 09:03:25;;;;;;;12.43;6.43;;;10.20;99.90;;;;;;4994127;28;20100;-86
2021/03/30 09:05:52;;;;;;;10.80;7.00;;;10.30;99.90;;;;;;4996321;28;20050;-85
2021/03/30 09:08:39;;;;;;;12.80;6.95;;;10.20;99.90;;;;;;4997882;28;20050;-85
2021/03/30 09:11:17;;;;;;;10.68;6.05;;;10.40;99.90;;;;;;4997895;28;20042;-86
2021/03/30 09:13:43;;;;;;;12.38;6.55;;;10.30;99.90;;;;;;4998017;28;20050;-86
2021/03/30 09:16:10;;;;;;;13.20;6.72;;;10.20;99.90;;;;;;4996026;28;20050;-85
2021/03/30 09:18:37;;;;;;;18.13;7.45;;;10.40;99.90;;;;;;4997992;28;20054;-88
2021/03/30 09:21:08;;;;;;;14.20;6.95;;;10.40;99.90;;;;;;4997763;28;20499;-86
2021/03/30 09:23:34;;;;;;;12.00;7.53;;;10.50;99.90;;;;;;4997943;28;20081;-85
2021/03/30 09:26:08;;;;;;;14.57;6.65;;;10.50;99.90;;;;;;4998012;28;20081;-85
2021/03/30 09:28:36;;;;;;;12.55;6.78;;;10.60;99.90;;;;;;4997886;28;20406;-86
2021/03/30 09:31:03;;;;;;;11.88;5.88;;;10.60;99.90;;;;;;4997126;28;20057;-85
2021/03/30 09:33:29;;;;;;;13.23;6.70;;;10.70;99.90;;;;;;4997713;28;20101;-85
2021/03/30 09:35:58;;;;;;;12.80;6.55;;;10.60;99.90;;;;;;4997400;28;20064;-85
2021/03/30 09:38:24;;;;;;;14.85;6.32;;;10.70;99.90;;;;;;4997236;28;20254;-85
2021/03/30 09:40:51;;;;;;;16.60;6.00;;;10.80;99.90;;;;;;4997365;28;20046;-85
2021/03/30 09:43:18;;;;;;;13.70;6.72;;;10.80;99.90;;;;;;4997549;28;20050;-86
2021/03/30 09:45:46;;;;;;;10.48;6.72;;;10.90;99.90;;;;;;4997454;28;20050;-85
2021/03/30 09:48:14;;;;;;;13.60;5.63;;;11.00;99.90;;;;;;4997232;28;20062;-86
2021/03/30 09:50:41;;;;;;;19.20;5.50;;;11.00;99.90;;;;;;4997142;28;20112;-85
2021/03/30 09:53:08;;;;;;;11.98;5.70;;;11.20;99.90;;;;;;4997416;28;20449;-86
2021/03/30 09:55:36;;;;;;;8.35;5.13;;;11.20;99.90;;;;;;4997468;28;20153;-86
2021/03/30 09:58:03;;;;;;;15.30;5.82;;;11.40;99.90;;;;;;4997560;28;20061;-84
2021/03/30 10:00:31;;;;;;;10.57;4.82;;;11.40;99.90;;;;;;4996772;28;20329;-85
2021/03/30 10:02:58;;;;;;;13.57;5.40;;;11.40;99.90;;;;;;5007444;28;20111;-85
2021/03/30 10:05:25;;;;;;;13.00;6.68;;;11.50;99.90;;;;;;5016949;28;20064;-85
2021/03/30 10:07:51;;;;;;;13.65;5.57;;;11.50;99.90;;;;;;5015818;28;20046;-85
2021/03/30 10:10:18;;;;;;;9.23;5.20;;;11.60;99.90;;;;;;5016306;28;20052;-84
2021/03/30 10:12:49;;;;;;;10.25;5.25;;;11.60;99.90;;;;;;5016359;28;20459;-86
2021/03/30 10:15:16;;;;;;;21.25;11.23;;;11.70;99.90;;;;;;5021299;28;20108;-90
2021/03/30 10:17:42;;;;;;;15.15;6.93;;;11.60;99.90;;;;;;5015493;28;20137;-87
2021/03/30 10:20:13;;;;;;;13.25;6.38;;;11.60;99.90;;;;;;5016557;28;20133;-87
2021/03/30 10:22:46;;;;;;;16.05;6.55;;;11.70;99.90;;;;;;5016657;28;20050;-88
2021/03/30 10:25:15;;;;;;;10.35;5.60;;;11.70;99.90;;;;;;5020361;28;20092;-89
2021/03/30 10:27:53;;;;;;;11.75;5.10;;;11.90;99.90;;;;;;5016277;28;20133;-88
2021/03/30 10:30:38;;;;;;;14.57;6.22;;;11.90;99.90;;;;;;5016281;28;20482;-81
2021/03/30 10:33:07;;;;;;;12.93;5.65;;;11.90;99.90;;;;;;5014567;28;20092;-82
2021/03/30 10:35:34;;;;;;;18.38;7.30;;;12.10;99.90;;;;;;5016203;28;20128;-83
2021/03/30 10:38:01;;;;;;;16.15;7.15;;;12.00;99.90;;;;;;5015938;28;20482;-82
2021/03/30 10:40:32;;;;;;;17.20;6.90;;;12.10;99.90;;;;;;5015845;28;20046;-83
2021/03/30 10:43:13;;;;;;;12.25;5.72;;;12.20;99.90;;;;;;5016037;28;20045;-83
2021/03/30 10:45:40;;;;;;;11.55;6.15;;;12.30;99.90;;;;;;5015599;28;20050;-83
2021/03/30 10:48:08;;;;;;;11.50;4.50;;;12.30;99.90;;;;;;5015547;28;20083;-83
2021/03/30 10:50:36;;;;;;;13.00;5.88;;;12.40;99.90;;;;;;5015821;28;20116;-83
2021/03/30 10:53:02;;;;;;;11.70;6.05;;;12.30;99.90;;;;;;5015845;28;20060;-83
2021/03/30 10:55:29;;;;;;;18.17;6.82;;;12.40;99.90;;;;;;5015599;28;20085;-83
2021/03/30 10:57:56;;;;;;;14.05;4.80;;;12.40;99.90;;;;;;5011307;28;20403;-83
2021/03/30 11:00:23;;;;;;;16.85;5.40;;;12.70;99.90;;;;;;4996023;28;20064;-83
2021/03/30 11:02:50;;;;;;;10.13;4.80;;;12.70;99.90;;;;;;4995857;28;20062;-83
2021/03/30 11:05:17;;;;;;;9.60;5.15;;;12.70;99.90;;;;;;4995835;28;20050;-83
2021/03/30 11:07:45;;;;;;;9.18;4.47;;;12.70;99.90;;;;;;4995949;28;20050;-83
2021/03/30 11:10:13;;;;;;;10.55;5.10;;;12.70;99.90;;;;;;4995662;28;20120;-83
2021/03/30 11:12:40;;;;;;;14.43;5.05;;;12.90;99.90;;;;;;4995547;28;20115;-83
2021/03/30 11:15:08;;;;;;;11.48;4.45;;;12.90;99.90;;;;;;4995522;28;20064;-83
2021/03/30 11:17:35;;;;;;;14.38;4.80;;;13.10;99.90;;;;;;4995589;28;20058;-83
2021/03/30 11:20:02;;;;;;;11.93;5.65;;;13.30;99.90;;;;;;4995547;28;20046;-83
2021/03/30 11:22:28;;;;;;;12.15;5.07;;;13.30;99.90;;;;;;4995786;28;20125;-83
2021/03/30 11:24:59;;;;;;;9.90;4.57;;;13.30;99.90;;;;;;4995517;28;20213;-83
2021/03/30 11:27:25;;;;;;;12.55;4.95;;;13.20;99.90;;;;;;4995607;28;20054;-82
2021/03/30 11:29:56;;;;;;;10.75;4.32;;;13.30;99.90;;;;;;5011698;28;20410;-83
2021/03/30 11:32:31;;;;;;;11.52;4.47;;;13.30;99.90;;;;;;5009444;28;20072;-83
2021/03/30 11:35:00;;;;;;;9.68;4.82;;;13.30;99.90;;;;;;4995460;28;20054;-83
2021/03/30 11:40:15;;;;;;;11.48;4.90;;;13.40;99.90;;;;;;4992983;28;20046;-83
2021/03/30 11:42:41;;;;;;;15.95;5.05;;;13.50;99.90;;;;;;4995244;28;20092;-82
2021/03/30 11:45:09;;;;;;;13.95;5.22;;;13.60;99.90;;;;;;4995420;28;20062;-83
2021/03/30 11:47:36;;;;;;;9.80;4.88;;;13.70;99.90;;;;;;4994954;28;20128;-83
2021/03/30 11:50:04;;;;;;;11.23;6.32;;;13.80;99.90;;;;;;4995133;28;20415;-83
2021/03/30 11:52:30;;;;;;;8.43;5.07;;;13.80;99.90;;;;;;4995051;28;20046;-83
2021/03/30 11:54:57;;;;;;;16.40;5.60;;;13.90;99.90;;;;;;4995100;28;20058;-83
2021/03/30 11:57:24;;;;;;;11.98;5.85;;;13.90;99.90;;;;;;4995084;28;20431;-82
2021/03/30 11:59:51;;;;;;;13.13;5.50;;;14.00;99.90;;;;;;4995618;28;20049;-82
2021/03/30 12:02:18;;;;;;;9.60;4.50;;;14.10;99.90;;;;;;4994647;28;20374;-82
2021/03/30 12:04:44;;;;;;;10.75;5.22;;;14.20;99.90;;;;;;4995051;28;20057;-83
2021/03/30 12:07:11;;;;;;;10.52;4.38;;;14.10;99.90;;;;;;4994895;28;20058;-83
2021/03/30 12:09:37;;;;;;;8.18;3.45;;;14.30;99.90;;;;;;4995201;28;20064;-83
2021/03/30 12:12:05;;;;;;;8.70;3.22;;;14.20;99.90;;;;;;4995152;28;20050;-82
2021/03/30 12:14:32;;;;;;;13.73;3.60;;;14.30;99.90;;;;;;4995163;28;20151;-82
2021/03/30 12:16:59;;;;;;;8.23;4.25;;;14.30;99.90;;;;;;4995248;28;20055;-83
2021/03/30 12:19:26;;;;;;;8.98;3.55;;;14.40;99.90;;;;;;4994862;28;20058;-82
2021/03/30 12:21:53;;;;;;;9.57;4.28;;;14.50;99.90;;;;;;4994779;28;20083;-83
2021/03/30 12:24:20;;;;;;;7.85;3.60;;;14.60;99.90;;;;;;4995070;28;20058;-83
2021/03/30 12:26:47;;;;;;;8.55;2.70;;;14.60;99.90;;;;;;4994921;28;20047;-83
2021/03/30 12:29:13;;;;;;;13.85;3.58;;;14.70;99.90;;;;;;4994800;28;20047;-83
2021/03/30 12:31:41;;;;;;;11.07;3.30;;;14.80;99.90;;;;;;4994635;28;20491;-83
2021/03/30 12:34:08;;;;;;;11.98;5.40;;;14.80;99.90;;;;;;4994812;28;20386;-83
2021/03/30 12:36:35;;;;;;;9.38;4.30;;;14.80;99.90;;;;;;4994857;28;20312;-83
2021/03/30 12:39:01;;;;;;;11.98;3.97;;;14.80;99.90;;;;;;4994773;28;20537;-82
2021/03/30 12:41:30;;;;;;;7.15;2.80;;;14.90;99.90;;;;;;4997290;28;20043;-84
2021/03/30 12:43:56;;;;;;;10.18;3.38;;;15.00;99.90;;;;;;4998587;28;20471;-83
2021/03/30 12:46:23;;;;;;;16.20;5.50;;;15.10;99.90;;;;;;4998739;28;20077;-82
2021/03/30 12:48:50;;;;;;;7.80;3.45;;;15.20;99.90;;;;;;4998439;28;20073;-82
2021/03/30 12:51:17;;;;;;;12.50;4.07;;;15.20;99.90;;;;;;4998475;28;20065;-82
2021/03/30 12:53:44;;;;;;;12.25;3.38;;;15.20;99.90;;;;;;4998688;28;20153;-82
2021/03/30 12:56:10;;;;;;;10.68;3.70;;;15.30;99.90;;;;;;4998244;28;20141;-82
2021/03/30 12:58:37;;;;;;;10.80;3.92;;;15.30;99.90;;;;;;4998374;28;20050;-82
2021/03/30 13:01:04;;;;;;;11.50;4.10;;;15.40;99.90;;;;;;4998772;28;20097;-83
2021/03/30 13:03:30;;;;;;;14.88;6.38;;;15.40;99.90;;;;;;4997913;28;20541;-82
2021/03/30 13:05:58;;;;;;;11.65;4.40;;;15.40;99.90;;;;;;4998433;28;20054;-82
2021/03/30 13:08:24;;;;;;;12.90;4.80;;;15.50;99.90;;;;;;4997819;28;20046;-82
2021/03/30 13:10:51;;;;;;;8.30;3.97;;;15.50;99.90;;;;;;4997927;28;20054;-82
2021/03/30 13:13:17;;;;;;;10.98;4.22;;;15.60;99.90;;;;;;4998059;28;20046;-81
2021/03/30 13:15:44;;;;;;;16.30;4.10;;;15.70;99.90;;;;;;4997962;28;20047;-82
2021/03/30 13:18:11;;;;;;;9.88;3.72;;;15.80;99.90;;;;;;4997848;28;20069;-81
2021/03/30 13:20:37;;;;;;;9.27;4.03;;;15.80;99.90;;;;;;4998031;28;20112;-81
2021/03/30 13:23:05;;;;;;;9.45;3.97;;;15.90;99.90;;;;;;4997596;28;20064;-82
2021/03/30 13:25:33;;;;;;;14.82;5.55;;;15.90;99.90;;;;;;4998110;28;20382;-80
2021/03/30 13:28:00;;;;;;;14.45;4.75;;;15.90;99.90;;;;;;4997959;28;20050;-74
2021/03/30 13:30:27;;;;;;;11.65;4.22;;;15.80;99.90;;;;;;4997544;28;20054;-74
2021/03/30 13:32:53;;;;;;;9.98;4.72;;;15.80;99.90;;;;;;4997409;28;20050;-74
2021/03/30 13:35:20;;;;;;;8.20;4.45;;;15.80;99.90;;;;;;4997419;28;20193;-74
2021/03/30 13:37:47;;;;;;;15.35;5.45;;;15.80;99.90;;;;;;4997308;28;20466;-74
2021/03/30 13:40:15;;;;;;;12.32;4.63;;;15.90;99.90;;;;;;4997635;28;20054;-74
2021/03/30 13:42:42;;;;;;;12.50;4.65;;;15.90;99.90;;;;;;4997421;28;20466;-74
2021/03/30 13:45:10;;;;;;;12.77;4.22;;;15.90;99.90;;;;;;4997423;28;20050;-74
2021/03/30 13:47:36;;;;;;;8.70;4.80;;;16.00;99.90;;;;;;4997102;28;20150;-74
2021/03/30 13:50:04;;;;;;;10.95;4.47;;;15.90;99.90;;;;;;4997498;28;20056;-74
2021/03/30 13:52:30;;;;;;;10.25;5.07;;;15.90;99.90;;;;;;4997153;28;20046;-75
2021/03/30 13:54:57;;;;;;;14.90;5.35;;;15.90;99.90;;;;;;4997152;28;20050;-74
2021/03/30 13:57:25;;;;;;;15.65;5.25;;;15.90;99.90;;;;;;4997184;28;20427;-74
2021/03/30 13:59:52;;;;;;;13.82;5.60;;;16.10;99.90;;;;;;4996879;28;20467;-74
2021/03/30 14:02:19;;;;;;;12.85;4.45;;;16.20;99.90;;;;;;5009712;28;20489;-74
2021/03/30 14:04:45;;;;;;;14.23;4.32;;;16.20;99.90;;;;;;5016458;28;20061;-74
2021/03/30 14:07:12;;;;;;;8.88;3.97;;;16.20;99.90;;;;;;5016799;28;20046;-74
2021/03/30 14:09:38;;;;;;;13.18;4.57;;;16.30;99.90;;;;;;5016483;28;20053;-74
2021/03/30 14:12:08;;;;;;;10.27;4.07;;;16.30;99.90;;;;;;5016633;28;20053;-74
2021/03/30 14:14:37;;;;;;;18.10;5.65;;;16.20;99.90;;;;;;5016284;28;20057;-74
2021/03/30 14:17:07;;;;;;;6.85;4.30;;;16.20;99.90;;;;;;5016307;28;20060;-74
2021/03/30 14:19:37;;;;;;;11.93;5.18;;;16.30;99.90;;;;;;5016149;28;20085;-74
2021/03/30 14:22:05;;;;;;;11.20;4.20;;;16.30;99.90;;;;;;5016610;28;20041;-74
2021/03/30 14:24:57;;;;;;;13.70;5.50;;;16.40;99.90;;;;;;5016481;28;20048;-74
2021/03/30 14:27:25;;;;;;;9.88;5.50;;;16.40;99.90;;;;;;5016229;28;20050;-74
2021/03/30 14:29:53;;;;;;;11.98;4.68;;;16.30;99.90;;;;;;5016107;28;20406;-74
2021/03/30 14:32:20;;;;;;;11.00;5.78;;;16.40;99.90;;;;;;5015736;28;20054;-74